sensor_id;sensor_type;location;lat;lon;timestamp;temperature;humidity
80228;DHT22;69539;42.138;24.742;2023-07-31T00:01:45;29.10;23.10
80228;DHT22;69539;42.138;24.742;2023-07-31T00:04:11;29.10;23.20
80228;DHT22;69539;42.138;24.742;2023-07-31T00:06:37;29.00;23.10
80228;DHT22;69539;42.138;24.742;2023-07-31T00:09:02;29.00;23.20
80228;DHT22;69539;42.138;24.742;2023-07-31T00:11:28;29.00;23.30
80228;DHT22;69539;42.138;24.742;2023-07-31T00:13:53;28.90;23.30
80228;DHT22;69539;42.138;24.742;2023-07-31T00:16:19;28.90;23.40
80228;DHT22;69539;42.138;24.742;2023-07-31T00:18:45;28.90;23.40
80228;DHT22;69539;42.138;24.742;2023-07-31T00:21:11;28.90;23.50
80228;DHT22;69539;42.138;24.742;2023-07-31T00:23:36;28.90;23.50
80228;DHT22;69539;42.138;24.742;2023-07-31T00:26:02;28.90;23.50
80228;DHT22;69539;42.138;24.742;2023-07-31T00:28:28;28.90;23.50
80228;DHT22;69539;42.138;24.742;2023-07-31T00:30:54;28.90;23.50
80228;DHT22;69539;42.138;24.742;2023-07-31T00:33:19;28.90;24.40
80228;DHT22;69539;42.138;24.742;2023-07-31T00:35:45;28.90;23.60
80228;DHT22;69539;42.138;24.742;2023-07-31T00:38:11;28.90;23.60
80228;DHT22;69539;42.138;24.742;2023-07-31T00:40:37;28.90;23.60
80228;DHT22;69539;42.138;24.742;2023-07-31T00:43:03;28.80;23.60
80228;DHT22;69539;42.138;24.742;2023-07-31T00:45:29;28.80;23.80
80228;DHT22;69539;42.138;24.742;2023-07-31T00:47:55;28.80;23.80
80228;DHT22;69539;42.138;24.742;2023-07-31T00:50:24;28.70;23.80
80228;DHT22;69539;42.138;24.742;2023-07-31T00:52:50;28.70;23.80
80228;DHT22;69539;42.138;24.742;2023-07-31T00:55:16;28.70;23.90
80228;DHT22;69539;42.138;24.742;2023-07-31T00:57:42;28.70;23.90
80228;DHT22;69539;42.138;24.742;2023-07-31T01:00:08;28.70;24.00
80228;DHT22;69539;42.138;24.742;2023-07-31T01:02:35;28.70;23.90
80228;DHT22;69539;42.138;24.742;2023-07-31T01:05:02;28.70;23.90
80228;DHT22;69539;42.138;24.742;2023-07-31T01:10:04;28.70;24.00
80228;DHT22;69539;42.138;24.742;2023-07-31T01:12:31;28.70;24.00
80228;DHT22;69539;42.138;24.742;2023-07-31T01:15:08;28.70;24.00
80228;DHT22;69539;42.138;24.742;2023-07-31T01:17:39;28.70;24.10
80228;DHT22;69539;42.138;24.742;2023-07-31T01:20:12;28.70;24.00
80228;DHT22;69539;42.138;24.742;2023-07-31T01:28:38;28.70;24.20
80228;DHT22;69539;42.138;24.742;2023-07-31T01:31:07;28.70;24.30
80228;DHT22;69539;42.138;24.742;2023-07-31T01:33:35;28.60;24.30
80228;DHT22;69539;42.138;24.742;2023-07-31T01:36:02;28.60;24.40
80228;DHT22;69539;42.138;24.742;2023-07-31T01:38:28;28.60;24.50
80228;DHT22;69539;42.138;24.742;2023-07-31T01:40:53;28.60;24.50
80228;DHT22;69539;42.138;24.742;2023-07-31T01:43:20;28.60;24.60
80228;DHT22;69539;42.138;24.742;2023-07-31T01:45:45;28.60;24.60
80228;DHT22;69539;42.138;24.742;2023-07-31T01:48:11;28.60;24.60
80228;DHT22;69539;42.138;24.742;2023-07-31T01:50:37;28.60;24.70
80228;DHT22;69539;42.138;24.742;2023-07-31T01:53:02;28.50;24.70
80228;DHT22;69539;42.138;24.742;2023-07-31T01:55:28;28.60;24.70
80228;DHT22;69539;42.138;24.742;2023-07-31T01:57:53;28.50;24.60
80228;DHT22;69539;42.138;24.742;2023-07-31T02:00:19;28.50;24.60
80228;DHT22;69539;42.138;24.742;2023-07-31T02:02:45;28.50;24.70
80228;DHT22;69539;42.138;24.742;2023-07-31T02:05:10;28.50;24.80
80228;DHT22;69539;42.138;24.742;2023-07-31T02:07:36;28.40;24.70
80228;DHT22;69539;42.138;24.742;2023-07-31T02:10:02;28.40;24.80
80228;DHT22;69539;42.138;24.742;2023-07-31T02:12:27;28.40;24.80
80228;DHT22;69539;42.138;24.742;2023-07-31T02:14:56;28.40;24.80
80228;DHT22;69539;42.138;24.742;2023-07-31T02:17:22;28.40;24.80
80228;DHT22;69539;42.138;24.742;2023-07-31T02:19:47;28.40;24.70
80228;DHT22;69539;42.138;24.742;2023-07-31T02:22:13;28.30;24.70
80228;DHT22;69539;42.138;24.742;2023-07-31T02:24:39;28.40;24.70
80228;DHT22;69539;42.138;24.742;2023-07-31T02:27:05;28.40;24.70
80228;DHT22;69539;42.138;24.742;2023-07-31T02:29:30;28.40;24.80
80228;DHT22;69539;42.138;24.742;2023-07-31T02:31:56;28.30;24.90
80228;DHT22;69539;42.138;24.742;2023-07-31T02:34:22;28.40;25.10
80228;DHT22;69539;42.138;24.742;2023-07-31T02:36:47;28.40;25.30
80228;DHT22;69539;42.138;24.742;2023-07-31T02:39:13;28.40;25.80
80228;DHT22;69539;42.138;24.742;2023-07-31T02:41:38;28.40;26.00
80228;DHT22;69539;42.138;24.742;2023-07-31T02:44:04;28.40;26.30
80228;DHT22;69539;42.138;24.742;2023-07-31T02:46:30;28.40;26.70
80228;DHT22;69539;42.138;24.742;2023-07-31T02:48:55;28.40;27.00
80228;DHT22;69539;42.138;24.742;2023-07-31T02:51:21;28.30;27.40
80228;DHT22;69539;42.138;24.742;2023-07-31T02:53:47;28.40;27.80
80228;DHT22;69539;42.138;24.742;2023-07-31T02:56:13;28.40;28.00
80228;DHT22;69539;42.138;24.742;2023-07-31T02:58:39;28.40;28.30
80228;DHT22;69539;42.138;24.742;2023-07-31T03:01:04;28.50;28.60
80228;DHT22;69539;42.138;24.742;2023-07-31T03:03:30;28.50;28.90
80228;DHT22;69539;42.138;24.742;2023-07-31T03:05:56;28.40;29.00
80228;DHT22;69539;42.138;24.742;2023-07-31T03:08:22;28.50;29.30
80228;DHT22;69539;42.138;24.742;2023-07-31T03:10:47;28.50;29.20
80228;DHT22;69539;42.138;24.742;2023-07-31T03:13:13;28.50;29.50
80228;DHT22;69539;42.138;24.742;2023-07-31T03:15:42;28.50;29.50
80228;DHT22;69539;42.138;24.742;2023-07-31T03:18:07;28.50;29.70
80228;DHT22;69539;42.138;24.742;2023-07-31T03:20:33;28.50;30.10
80228;DHT22;69539;42.138;24.742;2023-07-31T03:22:59;28.50;31.00
80228;DHT22;69539;42.138;24.742;2023-07-31T03:25:24;28.50;32.10
80228;DHT22;69539;42.138;24.742;2023-07-31T03:27:50;28.50;33.60
80228;DHT22;69539;42.138;24.742;2023-07-31T03:30:16;28.40;34.80
80228;DHT22;69539;42.138;24.742;2023-07-31T03:32:41;28.40;36.00
80228;DHT22;69539;42.138;24.742;2023-07-31T03:35:07;28.40;37.20
80228;DHT22;69539;42.138;24.742;2023-07-31T03:37:33;28.40;38.10
80228;DHT22;69539;42.138;24.742;2023-07-31T03:39:58;28.40;38.50
80228;DHT22;69539;42.138;24.742;2023-07-31T03:42:24;28.30;38.80
80228;DHT22;69539;42.138;24.742;2023-07-31T03:44:50;28.30;38.80
80228;DHT22;69539;42.138;24.742;2023-07-31T03:47:15;28.30;38.90
80228;DHT22;69539;42.138;24.742;2023-07-31T03:49:41;28.20;38.80
80228;DHT22;69539;42.138;24.742;2023-07-31T03:52:07;28.20;39.00
80228;DHT22;69539;42.138;24.742;2023-07-31T03:54:33;28.10;39.30
80228;DHT22;69539;42.138;24.742;2023-07-31T03:56:58;28.10;39.60
80228;DHT22;69539;42.138;24.742;2023-07-31T03:59:24;28.00;39.60
80228;DHT22;69539;42.138;24.742;2023-07-31T04:01:50;28.00;39.50
80228;DHT22;69539;42.138;24.742;2023-07-31T04:04:15;28.00;40.30
80228;DHT22;69539;42.138;24.742;2023-07-31T04:06:41;28.00;38.80
80228;DHT22;69539;42.138;24.742;2023-07-31T04:09:06;28.00;38.60
80228;DHT22;69539;42.138;24.742;2023-07-31T04:11:32;28.00;38.80
80228;DHT22;69539;42.138;24.742;2023-07-31T04:13:58;28.00;39.20
80228;DHT22;69539;42.138;24.742;2023-07-31T04:16:23;28.00;39.50
80228;DHT22;69539;42.138;24.742;2023-07-31T04:18:49;28.00;39.50
80228;DHT22;69539;42.138;24.742;2023-07-31T04:21:15;28.00;39.50
80228;DHT22;69539;42.138;24.742;2023-07-31T04:23:40;28.10;39.50
80228;DHT22;69539;42.138;24.742;2023-07-31T04:26:06;28.00;39.50
80228;DHT22;69539;42.138;24.742;2023-07-31T04:28:32;28.00;40.60
80228;DHT22;69539;42.138;24.742;2023-07-31T04:30:57;28.00;39.40
80228;DHT22;69539;42.138;24.742;2023-07-31T04:33:24;28.00;39.20
80228;DHT22;69539;42.138;24.742;2023-07-31T04:35:53;28.00;39.20
80228;DHT22;69539;42.138;24.742;2023-07-31T04:38:22;28.00;39.20
80228;DHT22;69539;42.138;24.742;2023-07-31T04:40:48;28.10;39.50
80228;DHT22;69539;42.138;24.742;2023-07-31T04:43:14;28.10;39.60
80228;DHT22;69539;42.138;24.742;2023-07-31T04:45:42;28.10;39.20
80228;DHT22;69539;42.138;24.742;2023-07-31T04:48:10;28.10;39.20
80228;DHT22;69539;42.138;24.742;2023-07-31T04:50:36;28.10;39.20
80228;DHT22;69539;42.138;24.742;2023-07-31T04:53:01;28.10;39.10
80228;DHT22;69539;42.138;24.742;2023-07-31T04:55:27;28.10;39.00
80228;DHT22;69539;42.138;24.742;2023-07-31T04:57:52;28.10;39.00
80228;DHT22;69539;42.138;24.742;2023-07-31T05:00:18;28.10;39.00
80228;DHT22;69539;42.138;24.742;2023-07-31T05:02:44;28.10;38.90
80228;DHT22;69539;42.138;24.742;2023-07-31T05:05:09;28.20;38.60
80228;DHT22;69539;42.138;24.742;2023-07-31T05:07:35;28.20;38.50
80228;DHT22;69539;42.138;24.742;2023-07-31T05:10:01;28.20;38.40
80228;DHT22;69539;42.138;24.742;2023-07-31T05:12:26;28.30;38.30
80228;DHT22;69539;42.138;24.742;2023-07-31T05:14:52;28.30;38.30
80228;DHT22;69539;42.138;24.742;2023-07-31T05:17:18;28.30;38.20
80228;DHT22;69539;42.138;24.742;2023-07-31T05:19:43;28.30;38.00
80228;DHT22;69539;42.138;24.742;2023-07-31T05:22:09;28.30;38.00
80228;DHT22;69539;42.138;24.742;2023-07-31T05:24:35;28.30;37.90
80228;DHT22;69539;42.138;24.742;2023-07-31T05:27:00;28.40;38.10
80228;DHT22;69539;42.138;24.742;2023-07-31T05:29:26;28.40;38.30
80228;DHT22;69539;42.138;24.742;2023-07-31T05:31:52;28.30;38.20
80228;DHT22;69539;42.138;24.742;2023-07-31T05:34:17;28.40;38.30
80228;DHT22;69539;42.138;24.742;2023-07-31T05:36:43;28.40;38.00
80228;DHT22;69539;42.138;24.742;2023-07-31T05:39:08;28.40;37.40
80228;DHT22;69539;42.138;24.742;2023-07-31T05:41:35;28.50;37.60
80228;DHT22;69539;42.138;24.742;2023-07-31T05:44:01;28.50;37.50
80228;DHT22;69539;42.138;24.742;2023-07-31T05:46:27;28.60;37.20
80228;DHT22;69539;42.138;24.742;2023-07-31T05:48:52;28.70;36.80
80228;DHT22;69539;42.138;24.742;2023-07-31T05:51:18;28.70;36.40
80228;DHT22;69539;42.138;24.742;2023-07-31T05:53:44;28.80;36.00
80228;DHT22;69539;42.138;24.742;2023-07-31T05:56:09;29.00;36.00
80228;DHT22;69539;42.138;24.742;2023-07-31T05:58:35;29.20;35.80
80228;DHT22;69539;42.138;24.742;2023-07-31T06:01:01;29.40;35.50
80228;DHT22;69539;42.138;24.742;2023-07-31T06:03:26;29.60;35.10
80228;DHT22;69539;42.138;24.742;2023-07-31T06:05:52;29.90;35.00
80228;DHT22;69539;42.138;24.742;2023-07-31T06:08:18;30.10;34.70
80228;DHT22;69539;42.138;24.742;2023-07-31T06:10:43;30.30;34.70
80228;DHT22;69539;42.138;24.742;2023-07-31T06:13:09;30.50;34.10
80228;DHT22;69539;42.138;24.742;2023-07-31T06:15:35;30.70;33.80
80228;DHT22;69539;42.138;24.742;2023-07-31T06:18:00;30.80;33.50
80228;DHT22;69539;42.138;24.742;2023-07-31T06:20:27;31.00;33.40
80228;DHT22;69539;42.138;24.742;2023-07-31T06:22:53;31.10;32.50
80228;DHT22;69539;42.138;24.742;2023-07-31T06:25:19;31.20;31.80
80228;DHT22;69539;42.138;24.742;2023-07-31T06:27:45;31.30;31.70
80228;DHT22;69539;42.138;24.742;2023-07-31T06:30:11;31.40;31.60
80228;DHT22;69539;42.138;24.742;2023-07-31T06:32:36;31.50;31.50
80228;DHT22;69539;42.138;24.742;2023-07-31T06:35:02;31.70;31.20
80228;DHT22;69539;42.138;24.742;2023-07-31T06:37:28;31.80;30.70
80228;DHT22;69539;42.138;24.742;2023-07-31T06:39:54;31.90;30.50
80228;DHT22;69539;42.138;24.742;2023-07-31T06:42:19;32.00;30.50
80228;DHT22;69539;42.138;24.742;2023-07-31T06:44:45;32.10;30.50
80228;DHT22;69539;42.138;24.742;2023-07-31T06:47:10;32.30;30.60
80228;DHT22;69539;42.138;24.742;2023-07-31T06:49:36;32.40;30.10
80228;DHT22;69539;42.138;24.742;2023-07-31T06:52:02;32.60;30.10
80228;DHT22;69539;42.138;24.742;2023-07-31T06:54:28;32.70;29.80
80228;DHT22;69539;42.138;24.742;2023-07-31T06:56:53;32.90;29.70
80228;DHT22;69539;42.138;24.742;2023-07-31T06:59:19;32.90;29.30
80228;DHT22;69539;42.138;24.742;2023-07-31T07:01:45;33.10;29.40
80228;DHT22;69539;42.138;24.742;2023-07-31T07:04:10;33.20;29.30
80228;DHT22;69539;42.138;24.742;2023-07-31T07:06:36;33.30;29.20
80228;DHT22;69539;42.138;24.742;2023-07-31T07:09:02;33.50;29.00
80228;DHT22;69539;42.138;24.742;2023-07-31T07:11:28;33.60;28.30
80228;DHT22;69539;42.138;24.742;2023-07-31T07:13:54;33.70;28.10
80228;DHT22;69539;42.138;24.742;2023-07-31T07:16:19;33.70;28.00
80228;DHT22;69539;42.138;24.742;2023-07-31T07:18:45;33.80;27.80
80228;DHT22;69539;42.138;24.742;2023-07-31T07:21:11;33.90;27.80
80228;DHT22;69539;42.138;24.742;2023-07-31T07:23:41;34.00;27.80
80228;DHT22;69539;42.138;24.742;2023-07-31T07:26:07;34.10;27.80
80228;DHT22;69539;42.138;24.742;2023-07-31T07:28:32;34.30;27.80
80228;DHT22;69539;42.138;24.742;2023-07-31T07:30:58;34.40;27.80
80228;DHT22;69539;42.138;24.742;2023-07-31T07:33:24;34.50;27.60
80228;DHT22;69539;42.138;24.742;2023-07-31T07:35:49;34.60;27.70
80228;DHT22;69539;42.138;24.742;2023-07-31T07:38:15;34.70;27.50
80228;DHT22;69539;42.138;24.742;2023-07-31T07:40:41;34.80;27.20
80228;DHT22;69539;42.138;24.742;2023-07-31T07:43:07;34.90;27.00
80228;DHT22;69539;42.138;24.742;2023-07-31T07:45:33;35.00;26.70
80228;DHT22;69539;42.138;24.742;2023-07-31T07:47:58;35.00;26.30
80228;DHT22;69539;42.138;24.742;2023-07-31T07:50:24;35.10;26.70
80228;DHT22;69539;42.138;24.742;2023-07-31T07:52:50;35.10;26.70
80228;DHT22;69539;42.138;24.742;2023-07-31T07:55:16;35.20;26.60
80228;DHT22;69539;42.138;24.742;2023-07-31T07:57:41;35.30;26.50
80228;DHT22;69539;42.138;24.742;2023-07-31T08:00:09;35.30;26.00
80228;DHT22;69539;42.138;24.742;2023-07-31T08:02:36;35.50;26.20
80228;DHT22;69539;42.138;24.742;2023-07-31T08:05:01;35.50;25.80
80228;DHT22;69539;42.138;24.742;2023-07-31T08:07:27;35.60;25.70
80228;DHT22;69539;42.138;24.742;2023-07-31T08:09:52;35.70;25.40
80228;DHT22;69539;42.138;24.742;2023-07-31T08:12:18;35.70;25.30
80228;DHT22;69539;42.138;24.742;2023-07-31T08:14:44;35.90;25.40
80228;DHT22;69539;42.138;24.742;2023-07-31T08:17:10;35.90;25.20
80228;DHT22;69539;42.138;24.742;2023-07-31T08:19:35;36.00;25.10
80228;DHT22;69539;42.138;24.742;2023-07-31T08:22:01;36.20;25.20
80228;DHT22;69539;42.138;24.742;2023-07-31T08:24:27;36.30;25.10
80228;DHT22;69539;42.138;24.742;2023-07-31T08:26:52;36.40;25.00
80228;DHT22;69539;42.138;24.742;2023-07-31T08:29:18;36.50;24.70
80228;DHT22;69539;42.138;24.742;2023-07-31T08:31:44;36.60;24.70
80228;DHT22;69539;42.138;24.742;2023-07-31T08:34:09;36.60;24.40
80228;DHT22;69539;42.138;24.742;2023-07-31T08:36:35;36.50;24.00
80228;DHT22;69539;42.138;24.742;2023-07-31T08:39:01;36.50;25.00
80228;DHT22;69539;42.138;24.742;2023-07-31T08:41:27;36.50;24.00
80228;DHT22;69539;42.138;24.742;2023-07-31T08:43:53;36.50;24.00
80228;DHT22;69539;42.138;24.742;2023-07-31T08:46:21;36.50;23.70
80228;DHT22;69539;42.138;24.742;2023-07-31T08:48:47;36.70;23.80
80228;DHT22;69539;42.138;24.742;2023-07-31T08:51:14;36.70;23.40
80228;DHT22;69539;42.138;24.742;2023-07-31T08:53:41;36.90;23.50
80228;DHT22;69539;42.138;24.742;2023-07-31T08:56:07;37.00;23.20
80228;DHT22;69539;42.138;24.742;2023-07-31T08:58:35;37.00;23.00
80228;DHT22;69539;42.138;24.742;2023-07-31T09:01:04;37.10;22.80
80228;DHT22;69539;42.138;24.742;2023-07-31T09:03:34;37.10;22.60
80228;DHT22;69539;42.138;24.742;2023-07-31T09:06:01;37.10;22.60
80228;DHT22;69539;42.138;24.742;2023-07-31T09:08:30;37.20;22.50
80228;DHT22;69539;42.138;24.742;2023-07-31T09:11:02;37.20;22.40
80228;DHT22;69539;42.138;24.742;2023-07-31T09:13:31;37.30;22.30
80228;DHT22;69539;42.138;24.742;2023-07-31T09:15:57;37.30;22.00
80228;DHT22;69539;42.138;24.742;2023-07-31T09:18:23;37.40;22.00
80228;DHT22;69539;42.138;24.742;2023-07-31T09:21:09;37.50;21.90
80228;DHT22;69539;42.138;24.742;2023-07-31T09:23:46;37.60;21.80
80228;DHT22;69539;42.138;24.742;2023-07-31T09:26:33;37.70;21.60
80228;DHT22;69539;42.138;24.742;2023-07-31T09:29:00;37.70;21.30
80228;DHT22;69539;42.138;24.742;2023-07-31T09:31:52;37.70;21.30
80228;DHT22;69539;42.138;24.742;2023-07-31T09:34:19;37.70;21.30
80228;DHT22;69539;42.138;24.742;2023-07-31T09:36:50;37.70;21.00
80228;DHT22;69539;42.138;24.742;2023-07-31T09:39:17;37.60;21.00
80228;DHT22;69539;42.138;24.742;2023-07-31T09:41:46;37.50;21.00
80228;DHT22;69539;42.138;24.742;2023-07-31T09:44:12;37.50;20.90
80228;DHT22;69539;42.138;24.742;2023-07-31T09:46:38;37.50;20.70
80228;DHT22;69539;42.138;24.742;2023-07-31T09:49:13;37.50;20.30
80228;DHT22;69539;42.138;24.742;2023-07-31T09:51:41;37.50;20.70
80228;DHT22;69539;42.138;24.742;2023-07-31T09:54:16;37.50;20.60
80228;DHT22;69539;42.138;24.742;2023-07-31T09:56:47;37.50;20.60
80228;DHT22;69539;42.138;24.742;2023-07-31T09:59:16;37.40;21.10
80228;DHT22;69539;42.138;24.742;2023-07-31T10:01:43;37.50;21.10
80228;DHT22;69539;42.138;24.742;2023-07-31T10:04:09;37.50;21.40
80228;DHT22;69539;42.138;24.742;2023-07-31T10:06:36;37.50;20.80
80228;DHT22;69539;42.138;24.742;2023-07-31T10:09:07;37.50;20.50
80228;DHT22;69539;42.138;24.742;2023-07-31T10:11:42;37.40;20.60
80228;DHT22;69539;42.138;24.742;2023-07-31T10:14:11;37.30;20.90
80228;DHT22;69539;42.138;24.742;2023-07-31T10:16:38;37.30;20.80
80228;DHT22;69539;42.138;24.742;2023-07-31T10:19:05;37.30;20.90
80228;DHT22;69539;42.138;24.742;2023-07-31T10:21:32;37.40;20.90
80228;DHT22;69539;42.138;24.742;2023-07-31T10:24:03;37.40;20.90
80228;DHT22;69539;42.138;24.742;2023-07-31T10:26:31;37.40;21.80
80228;DHT22;69539;42.138;24.742;2023-07-31T10:28:56;37.40;20.80
80228;DHT22;69539;42.138;24.742;2023-07-31T10:31:24;37.40;20.70
80228;DHT22;69539;42.138;24.742;2023-07-31T10:33:53;37.40;20.50
80228;DHT22;69539;42.138;24.742;2023-07-31T10:36:20;37.40;20.40
80228;DHT22;69539;42.138;24.742;2023-07-31T10:38:48;37.40;20.30
80228;DHT22;69539;42.138;24.742;2023-07-31T10:41:14;37.40;20.40
80228;DHT22;69539;42.138;24.742;2023-07-31T10:43:40;37.40;20.50
80228;DHT22;69539;42.138;24.742;2023-07-31T10:46:12;37.40;20.60
80228;DHT22;69539;42.138;24.742;2023-07-31T10:48:39;37.40;20.40
80228;DHT22;69539;42.138;24.742;2023-07-31T10:51:08;37.40;20.50
80228;DHT22;69539;42.138;24.742;2023-07-31T10:53:36;37.40;20.50
80228;DHT22;69539;42.138;24.742;2023-07-31T10:56:06;37.30;20.50
80228;DHT22;69539;42.138;24.742;2023-07-31T10:58:32;37.30;20.50
80228;DHT22;69539;42.138;24.742;2023-07-31T11:01:00;37.30;20.40
80228;DHT22;69539;42.138;24.742;2023-07-31T11:03:29;37.30;19.90
80228;DHT22;69539;42.138;24.742;2023-07-31T11:06:06;37.30;20.00
80228;DHT22;69539;42.138;24.742;2023-07-31T11:08:34;37.30;19.90
80228;DHT22;69539;42.138;24.742;2023-07-31T11:13:33;37.30;20.00
80228;DHT22;69539;42.138;24.742;2023-07-31T11:16:00;37.30;20.10
80228;DHT22;69539;42.138;24.742;2023-07-31T11:18:26;37.30;19.90
80228;DHT22;69539;42.138;24.742;2023-07-31T11:20:53;37.30;19.70
80228;DHT22;69539;42.138;24.742;2023-07-31T11:23:20;37.30;19.80
80228;DHT22;69539;42.138;24.742;2023-07-31T11:25:46;37.20;20.40
80228;DHT22;69539;42.138;24.742;2023-07-31T11:28:14;37.10;20.70
80228;DHT22;69539;42.138;24.742;2023-07-31T11:30:40;37.10;20.90
80228;DHT22;69539;42.138;24.742;2023-07-31T11:33:07;37.00;21.10
80228;DHT22;69539;42.138;24.742;2023-07-31T11:35:36;36.90;21.30
80228;DHT22;69539;42.138;24.742;2023-07-31T11:38:02;36.80;21.40
80228;DHT22;69539;42.138;24.742;2023-07-31T11:40:28;36.80;21.50
80228;DHT22;69539;42.138;24.742;2023-07-31T11:42:58;36.70;21.60
80228;DHT22;69539;42.138;24.742;2023-07-31T11:45:26;36.60;21.70
80228;DHT22;69539;42.138;24.742;2023-07-31T11:47:54;36.60;21.70
80228;DHT22;69539;42.138;24.742;2023-07-31T11:50:20;36.50;21.80
80228;DHT22;69539;42.138;24.742;2023-07-31T11:52:46;36.50;21.80
80228;DHT22;69539;42.138;24.742;2023-07-31T11:55:15;36.50;21.90
80228;DHT22;69539;42.138;24.742;2023-07-31T11:57:43;36.40;21.90
80228;DHT22;69539;42.138;24.742;2023-07-31T12:00:10;36.40;22.00
80228;DHT22;69539;42.138;24.742;2023-07-31T12:02:38;36.30;22.00
80228;DHT22;69539;42.138;24.742;2023-07-31T12:05:10;36.30;22.00
80228;DHT22;69539;42.138;24.742;2023-07-31T12:10:11;36.10;21.50
80228;DHT22;69539;42.138;24.742;2023-07-31T12:12:59;36.00;21.60
80228;DHT22;69539;42.138;24.742;2023-07-31T12:15:40;35.90;21.60
80228;DHT22;69539;42.138;24.742;2023-07-31T12:18:18;35.80;21.80
80228;DHT22;69539;42.138;24.742;2023-07-31T12:20:49;35.70;22.00
80228;DHT22;69539;42.138;24.742;2023-07-31T12:23:24;35.60;22.20
80228;DHT22;69539;42.138;24.742;2023-07-31T12:26:12;35.50;22.10
80228;DHT22;69539;42.138;24.742;2023-07-31T12:28:43;35.50;22.20
80228;DHT22;69539;42.138;24.742;2023-07-31T12:31:10;35.50;22.20
80228;DHT22;69539;42.138;24.742;2023-07-31T12:33:38;35.40;22.10
80228;DHT22;69539;42.138;24.742;2023-07-31T12:36:13;35.40;22.00
80228;DHT22;69539;42.138;24.742;2023-07-31T12:38:40;35.30;22.00
80228;DHT22;69539;42.138;24.742;2023-07-31T12:41:07;35.30;22.00
80228;DHT22;69539;42.138;24.742;2023-07-31T12:43:33;35.30;22.00
80228;DHT22;69539;42.138;24.742;2023-07-31T12:45:59;35.30;21.70
80228;DHT22;69539;42.138;24.742;2023-07-31T12:48:25;35.30;21.10
80228;DHT22;69539;42.138;24.742;2023-07-31T12:50:50;35.30;21.10
80228;DHT22;69539;42.138;24.742;2023-07-31T12:53:16;35.30;20.80
80228;DHT22;69539;42.138;24.742;2023-07-31T12:55:42;35.30;20.70
80228;DHT22;69539;42.138;24.742;2023-07-31T12:58:07;35.30;20.60
80228;DHT22;69539;42.138;24.742;2023-07-31T13:00:33;35.30;21.10
80228;DHT22;69539;42.138;24.742;2023-07-31T13:02:59;35.30;20.90
80228;DHT22;69539;42.138;24.742;2023-07-31T13:05:26;35.30;20.90
80228;DHT22;69539;42.138;24.742;2023-07-31T13:07:52;35.30;20.90
80228;DHT22;69539;42.138;24.742;2023-07-31T13:10:17;35.30;20.90
80228;DHT22;69539;42.138;24.742;2023-07-31T13:12:43;35.30;21.00
80228;DHT22;69539;42.138;24.742;2023-07-31T13:15:09;35.30;21.10
80228;DHT22;69539;42.138;24.742;2023-07-31T13:17:35;35.20;21.20
80228;DHT22;69539;42.138;24.742;2023-07-31T13:20:02;35.20;22.20
80228;DHT22;69539;42.138;24.742;2023-07-31T13:22:28;35.10;21.90
80228;DHT22;69539;42.138;24.742;2023-07-31T13:24:54;35.10;22.40
80228;DHT22;69539;42.138;24.742;2023-07-31T13:27:20;35.10;23.10
80228;DHT22;69539;42.138;24.742;2023-07-31T13:29:51;35.00;23.60
80228;DHT22;69539;42.138;24.742;2023-07-31T13:32:18;35.00;24.00
80228;DHT22;69539;42.138;24.742;2023-07-31T13:34:44;34.90;23.80
80228;DHT22;69539;42.138;24.742;2023-07-31T13:37:10;34.80;23.80
80228;DHT22;69539;42.138;24.742;2023-07-31T13:39:36;34.80;23.80
80228;DHT22;69539;42.138;24.742;2023-07-31T13:42:05;34.70;23.60
80228;DHT22;69539;42.138;24.742;2023-07-31T13:44:37;34.70;23.60
80228;DHT22;69539;42.138;24.742;2023-07-31T13:47:03;34.60;23.80
80228;DHT22;69539;42.138;24.742;2023-07-31T13:49:29;34.50;23.90
80228;DHT22;69539;42.138;24.742;2023-07-31T13:51:55;34.50;24.10
80228;DHT22;69539;42.138;24.742;2023-07-31T13:54:22;34.50;24.20
80228;DHT22;69539;42.138;24.742;2023-07-31T13:56:48;34.40;24.20
80228;DHT22;69539;42.138;24.742;2023-07-31T13:59:14;34.30;24.10
80228;DHT22;69539;42.138;24.742;2023-07-31T14:01:41;34.20;24.10
80228;DHT22;69539;42.138;24.742;2023-07-31T14:04:07;34.20;24.10
80228;DHT22;69539;42.138;24.742;2023-07-31T14:06:33;34.10;24.00
80228;DHT22;69539;42.138;24.742;2023-07-31T14:08:58;34.10;23.80
80228;DHT22;69539;42.138;24.742;2023-07-31T14:11:24;34.10;23.80
80228;DHT22;69539;42.138;24.742;2023-07-31T14:13:50;34.00;23.90
80228;DHT22;69539;42.138;24.742;2023-07-31T14:16:16;34.00;23.90
80228;DHT22;69539;42.138;24.742;2023-07-31T14:18:42;34.00;23.90
80228;DHT22;69539;42.138;24.742;2023-07-31T14:21:08;33.90;23.70
80228;DHT22;69539;42.138;24.742;2023-07-31T14:23:34;33.90;23.70
80228;DHT22;69539;42.138;24.742;2023-07-31T14:26:00;33.90;24.80
80228;DHT22;69539;42.138;24.742;2023-07-31T14:28:26;33.90;23.80
80228;DHT22;69539;42.138;24.742;2023-07-31T14:30:51;33.80;23.90
80228;DHT22;69539;42.138;24.742;2023-07-31T14:33:17;33.80;24.00
80228;DHT22;69539;42.138;24.742;2023-07-31T14:35:43;33.80;23.90
80228;DHT22;69539;42.138;24.742;2023-07-31T14:38:08;33.80;23.90
80228;DHT22;69539;42.138;24.742;2023-07-31T14:40:34;33.80;24.00
80228;DHT22;69539;42.138;24.742;2023-07-31T14:43:00;33.80;24.10
80228;DHT22;69539;42.138;24.742;2023-07-31T14:45:25;33.80;24.40
80228;DHT22;69539;42.138;24.742;2023-07-31T14:47:51;33.70;24.50
80228;DHT22;69539;42.138;24.742;2023-07-31T14:50:17;33.70;24.70
80228;DHT22;69539;42.138;24.742;2023-07-31T14:52:42;33.70;24.60
80228;DHT22;69539;42.138;24.742;2023-07-31T14:55:08;33.70;24.50
80228;DHT22;69539;42.138;24.742;2023-07-31T14:57:35;33.70;24.40
80228;DHT22;69539;42.138;24.742;2023-07-31T15:00:00;33.70;24.30
80228;DHT22;69539;42.138;24.742;2023-07-31T15:02:26;33.60;24.70
80228;DHT22;69539;42.138;24.742;2023-07-31T15:04:53;33.50;23.80
80228;DHT22;69539;42.138;24.742;2023-07-31T15:07:18;33.50;24.00
80228;DHT22;69539;42.138;24.742;2023-07-31T15:09:44;33.50;24.80
80228;DHT22;69539;42.138;24.742;2023-07-31T15:12:10;33.40;24.90
80228;DHT22;69539;42.138;24.742;2023-07-31T15:14:35;33.40;26.00
80228;DHT22;69539;42.138;24.742;2023-07-31T15:17:01;33.40;25.10
80228;DHT22;69539;42.138;24.742;2023-07-31T15:19:27;33.40;25.10
80228;DHT22;69539;42.138;24.742;2023-07-31T15:21:52;33.40;25.20
80228;DHT22;69539;42.138;24.742;2023-07-31T15:24:18;33.40;25.30
80228;DHT22;69539;42.138;24.742;2023-07-31T15:26:45;33.30;25.50